Welcome to Northern Hawkes Bay. New Zealand.
PWS Header
      nz Flag



Hit Counter


W3C Valid W3C Valid logo


    Wairoa

Select any of the Stations below to visit their websites.










Historic Data from Weather Underground
Select the location of interest below. Wairoa is the default. Please have patience, this Data is slow to load in.
Northern Hawkes Bay Historical Data
Daily Summary for March 19, 2017 Units:  English    Metric   Both
« Previous Day
Next Day »
Daily Weekly Monthly Yearly Custom
  High: Low: Average:
Temperature: 70.2 °F 51.4 °F 60.4 °F
Dew Point: 56.5 °F 48.4 °F 51.6 °F
Humidity: 99% 47% 75%
Wind Speed: 17.4mph 0mph 5.7mph
Wind Gust: 25.9mph - -
Wind- - SSW
Pressure: 30.4 in 30.2 in -
Precipitation: 0.04 in    
Historical Graphs
 
 
Tabular Data for March 19, 2017
Time Temperature Dew Point Pressure Wind Wind Speed Wind Gust Humidity Rainfall Rate (Hourly) solar
00:03 60.4 °F 56.1 °F 30.4 in SSW 14.5 mph 24.4 mph 86% 0 in 0 W/m2
00:08 60.3 °F 56.5 °F 30.4 in SSW 13 mph 24.4 mph 87% 0 in 0 W/m2
00:13 59.7 °F 56.1 °F 30.4 in SSW 10.7 mph 25.9 mph 88% 0 in 0 W/m2
00:18 59.4 °F 56.5 °F 30.4 in SSW 10.7 mph 25.9 mph 90% 0 in 0 W/m2
00:23 59 °F 56.1 °F 30.4 in SSW 15.9 mph 21.3 mph 90% 0 in 0 W/m2
00:28 59.2 °F 56.3 °F 30.4 in SSW 10.7 mph 20.6 mph 90% 0 in 0 W/m2
00:33 59.2 °F 55.6 °F 30.4 in SSW 13.6 mph 20.6 mph 88% 0 in 0 W/m2
00:38 59.4 °F 55.2 °F 30.4 in SW 9.8 mph 19.7 mph 86% 0 in 0 W/m2
00:43 59.5 °F 55.4 °F 30.4 in SW 8.3 mph 19 mph 86% 0 in 0 W/m2
00:48 59.9 °F 55.8 °F 30.4 in SW 9.8 mph 16.8 mph 86% 0 in 0 W/m2
00:53 59.7 °F 55.9 °F 30.4 in WSW 11.4 mph 18.3 mph 87% 0 in 0 W/m2
00:58 59.7 °F 55.6 °F 30.4 in SW 8.3 mph 21.3 mph 86% 0 in 0 W/m2
01:03 59.5 °F 55.8 °F 30.4 in SW 7.6 mph 21.3 mph 87% 0 in 0 W/m2
01:08 59.7 °F 55.9 °F 30.4 in SSW 6.9 mph 19.7 mph 87% 0 in 0 W/m2
01:13 60.1 °F 56.1 °F 30.4 in SSW 13 mph 21.3 mph 87% 0 in 0 W/m2
01:18 59.9 °F 55.4 °F 30.4 in SW 12.1 mph 21.3 mph 85% 0 in 0 W/m2
01:23 59.9 °F 55.8 °F 30.4 in SSW 12.1 mph 18.3 mph 86% 0 in 0 W/m2
01:28 59.9 °F 55.8 °F 30.4 in SSW 9.2 mph 19.7 mph 86% 0 in 0 W/m2
01:33 59.9 °F 55.4 °F 30.4 in SSW 11.4 mph 19.7 mph 85% 0 in 0 W/m2
01:39 59.9 °F 55 °F 30.4 in SW 13.6 mph 20.6 mph 84% 0 in 0 W/m2
01:44 59.9 °F 55 °F 30.4 in SSW 15.2 mph 22.1 mph 84% 0 in 0 W/m2
01:49 59.7 °F 54.7 °F 30.4 in SSW 17.4 mph 22.1 mph 83% 0 in 0 W/m2
01:54 59.7 °F 54.9 °F 30.4 in South 13 mph 22.1 mph 84% 0 in 0 W/m2
01:59 59.4 °F 54.5 °F 30.3 in SSW 9.2 mph 21.3 mph 84% 0 in 0 W/m2
02:04 59.4 °F 54.5 °F 30.3 in SW 9.2 mph 18.3 mph 84% 0 in 0 W/m2
02:09 59.4 °F 54.5 °F 30.3 in SSW 9.2 mph 15.9 mph 84% 0 in 0 W/m2
02:14 59.4 °F 54.5 °F 30.4 in SW 13 mph 16.8 mph 84% 0 in 0 W/m2
02:19 59.5 °F 54.3 °F 30.4 in SW 8.3 mph 16.8 mph 83% 0 in 0 W/m2
02:24 59.4 °F 54.1 °F 30.3 in SW 10.7 mph 15.9 mph 83% 0 in 0 W/m2
02:29 59.4 °F 54.1 °F 30.3 in SW 11.4 mph 15.2 mph 83% 0 in 0 W/m2
02:34 59.4 °F 54 °F 30.3 in SW 9.8 mph 19.7 mph 82% 0 in 0 W/m2
02:39 59.4 °F 54 °F 30.3 in SW 6.9 mph 19.7 mph 82% 0 in 0 W/m2
02:44 59.4 °F 54 °F 30.3 in SW 9.2 mph 18.3 mph 82% 0 in 0 W/m2
02:49 59.4 °F 53.4 °F 30.3 in SW 9.8 mph 16.8 mph 81% 0 in 0 W/m2
02:54 59.4 °F 53.4 °F 30.3 in SW 13 mph 17.4 mph 81% 0 in 0 W/m2
02:59 59.4 °F 53.4 °F 30.3 in SW 7.6 mph 17.4 mph 81% 0 in 0 W/m2
03:04 59.4 °F 53.4 °F 30.3 in SW 11.4 mph 16.8 mph 81% 0 in 0 W/m2
03:09 59.4 °F 53.2 °F 30.3 in SSW 10.7 mph 19.7 mph 80% 0 in 0 W/m2
03:14 59.2 °F 53.4 °F 30.3 in SSW 13 mph 19.7 mph 81% 0 in 0 W/m2
03:19 58.3 °F 54.1 °F 30.3 in SSW 12.1 mph 19 mph 86% 0 in 0 W/m2
03:24 57.9 °F 54.1 °F 30.3 in SSW 8.3 mph 19 mph 87% 0 in 0 W/m2
03:29 57.7 °F 54 °F 30.3 in SW 6.9 mph 15.9 mph 87% 0 in 0 W/m2
03:34 57.7 °F 54 °F 30.3 in SSW 9.2 mph 18.3 mph 87% 0 in 0 W/m2
03:39 57.4 °F 54 °F 30.3 in SSW 6.9 mph 18.3 mph 88% 0 in 0 W/m2
03:44 57 °F 53.8 °F 30.3 in SW 8.3 mph 17.4 mph 89% 0 in 0 W/m2
03:49 56.8 °F 54.3 °F 30.3 in SW 13 mph 21.3 mph 91% 0.01 in 0 W/m2
03:54 56.5 °F 54.1 °F 30.3 in SW 10.7 mph 21.3 mph 92% 0.01 in 0 W/m2
03:59 56.3 °F 54.3 °F 30.3 in SW 13 mph 21.3 mph 93% 0.01 in 0 W/m2
04:04 56.3 °F 54.9 °F 30.3 in SW 12.1 mph 18.3 mph 95% 0.01 in 0 W/m2
04:09 56.1 °F 54.7 °F 30.3 in SW 6.9 mph 18.3 mph 95% 0.01 in 0 W/m2
04:14 55.8 °F 54.7 °F 30.3 in SW 6 mph 19.7 mph 96% 0.01 in 0 W/m2
04:19 55.8 °F 54.7 °F 30.3 in SW 6.9 mph 19.7 mph 96% 0.02 in 0 W/m2
04:24 55.8 °F 54.9 °F 30.3 in SW 8.3 mph 16.8 mph 97% 0.02 in 0 W/m2
04:29 55.4 °F 54.7 °F 30.3 in WSW 7.6 mph 15.9 mph 97% 0.02 in 0 W/m2
04:46 55.2 °F 54.3 °F 30.3 in SW 6 mph 19 mph 97% 0.02 in 0 W/m2
04:51 55.4 °F 54.7 °F 30.3 in SW 3.8 mph 19 mph 97% 0.01 in 0 W/m2
04:56 55.4 °F 54.7 °F 30.3 in SW 10.7 mph 15.2 mph 97% 0.01 in 0 W/m2
05:01 55.4 °F 54.3 °F 30.3 in SW 9.2 mph 15.2 mph 96% 0.01 in 0 W/m2
05:06 55.4 °F 54.3 °F 30.3 in SW 7.6 mph 15.9 mph 96% 0.01 in 0 W/m2
05:11 55.4 °F 54 °F 30.3 in SW 5.4 mph 15.9 mph 95% 0.01 in 0 W/m2
05:16 55.4 °F 54 °F 30.3 in SW 6.9 mph 14.5 mph 95% 0 in 0 W/m2
05:21 55.6 °F 54.1 °F 30.3 in SW 9.2 mph 13.6 mph 95% 0 in 0 W/m2
05:26 55.4 °F 53.8 °F 30.3 in WSW 3.8 mph 13 mph 94% 0 in 0 W/m2
05:31 55.8 °F 54.1 °F 30.3 in SW 8.3 mph 13 mph 94% 0 in 0 W/m2
05:36 56.3 °F 54 °F 30.3 in SW 10.7 mph 13.6 mph 92% 0.01 in 0 W/m2
05:41 56.8 °F 53.6 °F 30.3 in SW 9.2 mph 15.2 mph 89% 0.01 in 0 W/m2
05:46 56.8 °F 53.2 °F 30.3 in SW 4.5 mph 16.8 mph 88% 0.01 in 0 W/m2
05:51 56.7 °F 52.9 °F 30.3 in WSW 6.9 mph 17.4 mph 87% 0.01 in 0 W/m2
05:56 56.7 °F 52.9 °F 30.3 in WSW 9.2 mph 17.4 mph 87% 0.01 in 0 W/m2
06:01 56.7 °F 52.9 °F 30.3 in WSW 7.6 mph 13.6 mph 87% 0.01 in 0 W/m2
06:06 56.8 °F 52.7 °F 30.3 in WSW 6.9 mph 13.6 mph 86% 0.01 in 0 W/m2
06:11 56.8 °F 52.7 °F 30.3 in WSW 4.5 mph 13.6 mph 86% 0.01 in 0 W/m2
06:16 56.8 °F 52.7 °F 30.3 in SW 4.5 mph 9.8 mph 86% 0.01 in 0 W/m2
06:21 57 °F 53.2 °F 30.3 in SW 10.7 mph 16.8 mph 87% 0.01 in 0 W/m2
06:26 57.4 °F 52.9 °F 30.3 in SW 10.7 mph 19 mph 85% 0.01 in 0 W/m2
06:31 57.2 °F 53.1 °F 30.3 in SW 7.6 mph 19 mph 86% 0.01 in 0 W/m2
06:37 56.8 °F 53.1 °F 30.3 in WSW 11.4 mph 16.8 mph 87% 0 in 0 W/m2
06:42 56.8 °F 53.2 °F 30.3 in West 6.9 mph 16.8 mph 88% 0 in 0 W/m2
06:47 56.8 °F 53.1 °F 30.3 in WSW 8.3 mph 15.2 mph 87% 0 in 0 W/m2
06:52 57 °F 53.2 °F 30.3 in WSW 6.9 mph 11.4 mph 87% 0 in 0 W/m2
06:57 57.4 °F 52.9 °F 30.3 in SW 5.4 mph 13 mph 85% 0 in 0 W/m2
07:02 57.6 °F 52.9 °F 30.3 in SW 6.9 mph 13 mph 84% 0 in 0 W/m2
07:07 57.6 °F 52.3 °F 30.3 in WSW 6 mph 13.6 mph 83% 0 in 0 W/m2
07:12 57.7 °F 52.3 °F 30.3 in SW 6.9 mph 13.6 mph 82% 0 in 0 W/m2
07:17 57.9 °F 52.5 °F 30.3 in SW 8.3 mph 12.1 mph 82% 0 in 0 W/m2
07:22 58.3 °F 52.5 °F 30.3 in SW 7.6 mph 12.1 mph 81% 0 in 1 W/m2
07:27 58.3 °F 52.2 °F 30.3 in WSW 8.3 mph 17.4 mph 80% 0 in 2 W/m2
07:32 58.3 °F 52.2 °F 30.3 in SW 6.9 mph 17.4 mph 80% 0 in 4 W/m2
07:37 58.3 °F 52.2 °F 30.3 in SW 7.6 mph 14.5 mph 80% 0 in 5 W/m2
07:42 59 °F 51.8 °F 30.3 in SW 9.8 mph 17.4 mph 77% 0 in 6 W/m2
07:47 58.3 °F 51.8 °F 30.3 in SW 7.6 mph 17.4 mph 79% 0 in 6 W/m2
07:52 58.3 °F 52.2 °F 30.3 in SW 8.3 mph 15.9 mph 80% 0 in 9 W/m2
07:57 58.3 °F 52.5 °F 30.3 in SW 8.3 mph 17.4 mph 81% 0 in 15 W/m2
08:02 58.1 °F 52.5 °F 30.3 in SW 8.3 mph 17.4 mph 82% 0 in 21 W/m2
08:07 57.7 °F 52 °F 30.3 in SW 6.9 mph 16.8 mph 81% 0 in 19 W/m2
08:12 57.7 °F 51.6 °F 30.3 in SW 7.6 mph 16.8 mph 80% 0 in 21 W/m2
08:17 57.6 °F 51.1 °F 30.3 in SW 7.6 mph 13.6 mph 79% 0 in 25 W/m2
08:22 58.3 °F 52.2 °F 30.3 in SW 6 mph 13 mph 80% 0 in 19 W/m2
08:27 58.1 °F 51.3 °F 30.3 in SW 6 mph 15.9 mph 78% 0 in 24 W/m2
08:32 58.5 °F 51.3 °F 30.3 in SSW 6 mph 15.9 mph 77% 0 in 30 W/m2
08:37 58.6 °F 51.1 °F 30.3 in SW 9.2 mph 15.2 mph 76% 0 in 47 W/m2
08:42 59.5 °F 51.3 °F 30.3 in SW 9.2 mph 15.2 mph 74% 0 in 68 W/m2
08:47 59.2 °F 50.9 °F 30.3 in SW 3.8 mph 15.2 mph 74% 0 in 72 W/m2
08:52 59.2 °F 51.3 °F 30.3 in SW 7.6 mph 13.6 mph 75% 0 in 75 W/m2
08:57 59.2 °F 51.3 °F 30.3 in SW 7.6 mph 13.6 mph 75% 0 in 94 W/m2
09:02 59.9 °F 51.6 °F 30.3 in WSW 4.5 mph 13.6 mph 74% 0 in 103 W/m2
09:22 59.9 °F 51.6 °F 30.3 in SW 9.2 mph 13.6 mph 74% 0 in 152 W/m2
09:27 59.9 °F 51.6 °F 30.3 in SW 6.9 mph 13.6 mph 74% 0 in 140 W/m2
09:32 59.9 °F 51.6 °F 30.3 in WSW 4.5 mph 13 mph 74% 0 in 166 W/m2
09:37 60.1 °F 51.8 °F 30.3 in WSW 9.2 mph 13 mph 74% 0 in 179 W/m2
09:42 60.1 °F 51.8 °F 30.3 in WSW 6.9 mph 13 mph 74% 0 in 180 W/m2
09:47 60.3 °F 52 °F 30.3 in WSW 6.9 mph 13.6 mph 74% 0 in 157 W/m2
09:52 60.3 °F 52 °F 30.3 in SW 6 mph 13.6 mph 74% 0 in 166 W/m2
09:57 60.3 °F 52 °F 30.3 in WSW 9.8 mph 13.6 mph 74% 0 in 259 W/m2
10:02 61.3 °F 52.5 °F 30.3 in WSW 5.4 mph 13.6 mph 73% 0 in 200 W/m2
10:07 61.3 °F 52.5 °F 30.3 in WSW 8.3 mph 13.6 mph 73% 0 in 463 W/m2
10:12 61.5 °F 52.3 °F 30.3 in SW 8.3 mph 14.5 mph 72% 0 in 181 W/m2
10:17 61.2 °F 52.5 °F 30.3 in SW 3.8 mph 14.5 mph 73% 0 in 189 W/m2
10:22 60.6 °F 52 °F 30.3 in WSW 7.6 mph 13.6 mph 73% 0 in 255 W/m2
10:27 61.9 °F 52.9 °F 30.3 in WSW 8.3 mph 13.6 mph 72% 0 in 473 W/m2
10:32 63.1 °F 52.3 °F 30.3 in SW 7.6 mph 13.6 mph 68% 0 in 470 W/m2
10:37 63.1 °F 51.6 °F 30.3 in WSW 10.7 mph 15.2 mph 66% 0 in 468 W/m2
10:42 62.8 °F 51.3 °F 30.3 in SW 8.3 mph 15.2 mph 66% 0 in 420 W/m2
10:47 63 °F 51.4 °F 30.3 in SW 9.2 mph 15.2 mph 66% 0 in 461 W/m2
10:52 63.1 °F 50.7 °F 30.3 in SW 6 mph 14.5 mph 64% 0 in 313 W/m2
10:57 63.5 °F 51.1 °F 30.3 in SW 6.9 mph 14.5 mph 64% 0 in 234 W/m2
11:02 64.2 °F 52.2 °F 30.3 in SW 6 mph 12.1 mph 65% 0 in 531 W/m2
11:07 65.1 °F 53.1 °F 30.3 in SW 6.9 mph 11.4 mph 65% 0 in 258 W/m2
11:27 61.9 °F 51.3 °F 30.3 in WSW 6 mph 13.6 mph 68% 0 in 222 W/m2
11:32 61.5 °F 50.9 °F 30.4 in SW 7.6 mph 13.6 mph 68% 0 in 202 W/m2
11:37 61.5 °F 50.5 °F 30.4 in SW 5.4 mph 13.6 mph 67% 0 in 247 W/m2
11:42 61.7 °F 50.5 °F 30.3 in SW 6.9 mph 12.1 mph 67% 0 in 287 W/m2
11:47 62.4 °F 50.5 °F 30.3 in SSW 6 mph 12.1 mph 65% 0 in 230 W/m2
11:52 62.2 °F 50.4 °F 30.3 in SW 7.6 mph 11.4 mph 65% 0 in 201 W/m2
11:57 61.9 °F 50 °F 30.3 in SW 6 mph 12.1 mph 65% 0 in 187 W/m2
12:02 62.6 °F 49.8 °F 30.3 in SSW 6 mph 12.1 mph 63% 0 in 624 W/m2
12:07 64.2 °F 50.9 °F 30.3 in SSW 6 mph 10.7 mph 62% 0 in 712 W/m2
12:12 64.6 °F 49.8 °F 30.3 in SSW 6.9 mph 13 mph 59% 0 in 686 W/m2
12:17 64.8 °F 49.6 °F 30.3 in SSW 6.9 mph 13 mph 58% 0 in 663 W/m2
12:22 64.9 °F 49.5 °F 30.3 in SSW 7.6 mph 11.4 mph 57% 0 in 625 W/m2
12:27 64.6 °F 48.9 °F 30.3 in SW 6.9 mph 13.6 mph 57% 0 in 643 W/m2
12:32 64.4 °F 49.8 °F 30.3 in SW 6 mph 13.6 mph 59% 0 in 659 W/m2
12:37 64.8 °F 49.6 °F 30.3 in SW 8.3 mph 11.4 mph 58% 0 in 667 W/m2
12:42 64.8 °F 49.6 °F 30.3 in SW 5.4 mph 11.4 mph 58% 0 in 670 W/m2
12:47 64.9 °F 49.5 °F 30.3 in SSW 5.4 mph 11.4 mph 57% 0 in 678 W/m2
12:52 64.9 °F 49.5 °F 30.3 in SSW 6.9 mph 13 mph 57% 0 in 697 W/m2
12:57 65.1 °F 49.5 °F 30.3 in SW 6.9 mph 13 mph 57% 0 in 693 W/m2
12:59 65.1 °F 49.1 °F 30.3 in SSW 8.3 mph 13 mph 56% 0 in 696 W/m2
13:04 64.8 °F 49.3 °F 30.3 in SW 5.4 mph 12.1 mph 57% 0 in 699 W/m2
13:09 64.8 °F 49.3 °F 30.3 in SSW 9.8 mph 14.5 mph 57% 0 in 717 W/m2
13:14 64.8 °F 49.3 °F 30.3 in SSW 4.5 mph 14.5 mph 57% 0 in 703 W/m2
13:19 65.3 °F 49.6 °F 30.3 in SSW 7.6 mph 13.6 mph 57% 0 in 704 W/m2
13:24 65.3 °F 50.2 °F 30.3 in SW 8.3 mph 12.1 mph 58% 0 in 705 W/m2
13:29 65.3 °F 49.6 °F 30.3 in SSW 6.9 mph 11.4 mph 57% 0 in 700 W/m2
13:34 65.1 °F 49.1 °F 30.3 in SSW 7.6 mph 12.1 mph 56% 0 in 707 W/m2
13:39 65.3 °F 49.6 °F 30.3 in SSW 5.4 mph 12.1 mph 57% 0 in 709 W/m2
13:44 65.7 °F 49.6 °F 30.3 in SSW 7.6 mph 11.4 mph 56% 0 in 713 W/m2
13:49 65.3 °F 49.3 °F 30.3 in SSW 6 mph 13.6 mph 56% 0 in 703 W/m2
13:54 65.8 °F 49.6 °F 30.3 in SSW 6 mph 13.6 mph 56% 0 in 706 W/m2
13:59 65.5 °F 48.9 °F 30.3 in SSW 6 mph 13 mph 55% 0 in 697 W/m2
14:04 65.1 °F 49.1 °F 30.3 in South 6 mph 12.1 mph 56% 0 in 662 W/m2
14:09 65.8 °F 49.3 °F 30.3 in South 4.5 mph 11.4 mph 55% 0 in 566 W/m2
14:14 66.6 °F 49.5 °F 30.3 in SSW 6.9 mph 11.4 mph 54% 0 in 656 W/m2
14:19 65.7 °F 49.1 °F 30.3 in SSW 6 mph 9.2 mph 55% 0 in 597 W/m2
14:24 65.8 °F 49.3 °F 30.3 in South 4.5 mph 9.2 mph 55% 0 in 324 W/m2
14:29 65.7 °F 49.1 °F 30.3 in South 4.5 mph 10.7 mph 55% 0 in 516 W/m2
14:34 66.2 °F 48.6 °F 30.3 in SSW 1.6 mph 10.7 mph 53% 0 in 339 W/m2
14:39 66.7 °F 49.6 °F 30.3 in SSW 6 mph 8.3 mph 54% 0 in 665 W/m2
14:40 66.7 °F 49.6 °F 30.3 in SSW 4.5 mph 8.3 mph 54% 0 in 609 W/m2
14:45 66.6 °F 48.4 °F 30.3 in SSW 6 mph 8.3 mph 52% 0 in 665 W/m2
14:50 66.7 °F 49.1 °F 30.3 in SW 5.4 mph 8.3 mph 53% 0 in 604 W/m2
14:56 67.1 °F 48.4 °F 30.3 in SW 5.4 mph 9.2 mph 51% 0 in 631 W/m2
15:01 66.7 °F 48.6 °F 30.3 in SW 5.4 mph 9.8 mph 52% 0 in 604 W/m2
15:06 66.6 °F 48.9 °F 30.3 in SSW 3.1 mph 9.8 mph 53% 0 in 623 W/m2
15:11 67.8 °F 50.5 °F 30.3 in SSW 3.1 mph 8.3 mph 54% 0 in 602 W/m2
15:16 67.8 °F 49.6 °F 30.3 in SSW 3.1 mph 8.3 mph 52% 0 in 325 W/m2
15:21 67.8 °F 49.6 °F 30.3 in South 3.1 mph 9.2 mph 52% 0 in 103 W/m2
15:26 67.8 °F 49.6 °F 30.3 in SSW 1.6 mph 9.2 mph 52% 0 in 88 W/m2
15:31 68.4 °F 48.9 °F 30.3 in SSW 4.5 mph 9.2 mph 50% 0 in 86 W/m2
15:36 68.5 °F 49.6 °F 30.3 in SSE 3.8 mph 9.2 mph 51% 0 in 86 W/m2
15:41 68 °F 50.4 °F 30.3 in SE 1.6 mph 8.3 mph 53% 0 in 86 W/m2
15:46 69.6 °F 50.2 °F 30.3 in SE 0.7 mph 8.3 mph 50% 0 in 91 W/m2
15:51 69.1 °F 49.6 °F 30.3 in SSE 2.2 mph 8.3 mph 50% 0 in 134 W/m2
15:56 69.4 °F 50 °F 30.3 in SSE 2.2 mph 8.3 mph 50% 0 in 401 W/m2
16:01 69.6 °F 50.7 °F 30.3 in SE 4.5 mph 7.6 mph 51% 0 in 422 W/m2
16:06 68.7 °F 50.4 °F 30.3 in SE 2.2 mph 9.2 mph 52% 0 in 264 W/m2
16:11 68.9 °F 50.2 °F 30.3 in SE 3.8 mph 9.2 mph 51% 0 in 449 W/m2
16:16 68.9 °F 50.5 °F 30.3 in SE 4.5 mph 9.2 mph 52% 0 in 312 W/m2
16:21 68.5 °F 50.2 °F 30.3 in SSE 3.1 mph 9.2 mph 52% 0 in 424 W/m2
16:26 69.6 °F 50.2 °F 30.3 in SE 2.2 mph 6.9 mph 50% 0 in 409 W/m2
16:31 70.2 °F 48.9 °F 30.3 in SE 3.8 mph 6.9 mph 47% 0 in 385 W/m2
16:36 70.2 °F 49.6 °F 30.3 in SE 4.5 mph 6.9 mph 48% 0 in 373 W/m2
16:41 68.9 °F 50.5 °F 30.3 in SE 3.1 mph 9.2 mph 52% 0 in 362 W/m2
16:46 68.7 °F 50.4 °F 30.3 in SE 1.6 mph 9.2 mph 52% 0 in 344 W/m2
16:51 69.6 °F 51.8 °F 30.3 in ESE 4.5 mph 8.3 mph 53% 0 in 328 W/m2
16:56 69.1 °F 50.7 °F 30.3 in ESE 3.1 mph 7.6 mph 52% 0 in 311 W/m2
17:01 69.1 °F 50.2 °F 30.3 in ESE 3.8 mph 7.6 mph 51% 0 in 296 W/m2
17:06 69.3 °F 51.4 °F 30.3 in Calm   7.6 mph 53% 0 in 280 W/m2
17:11 69.3 °F 50.9 °F 30.3 in ESE 3.8 mph 7.6 mph 52% 0 in 264 W/m2
17:16 68.5 °F 50.2 °F 30.3 in ESE 3.1 mph 7.6 mph 52% 0 in 250 W/m2
17:21 68.5 °F 50.7 °F 30.3 in ESE 3.1 mph 7.6 mph 53% 0 in 235 W/m2
17:26 69.1 °F 50.7 °F 30.3 in ESE 1.6 mph 7.6 mph 52% 0 in 221 W/m2
17:31 68.9 °F 51.1 °F 30.3 in Calm   10.7 mph 53% 0 in 209 W/m2
17:36 69.1 °F 51.3 °F 30.3 in ESE 3.8 mph 10.7 mph 53% 0 in 195 W/m2
17:41 68.9 °F 50.5 °F 30.3 in ESE 3.1 mph 6.9 mph 52% 0 in 181 W/m2
17:46 68.2 °F 50.4 °F 30.3 in SE 2.2 mph 7.6 mph 53% 0 in 169 W/m2
17:51 68 °F 50.4 °F 30.3 in ESE 4.5 mph 7.6 mph 53% 0 in 156 W/m2
17:56 67.3 °F 50.2 °F 30.3 in ESE 3.8 mph 9.2 mph 54% 0 in 141 W/m2
18:01 67.6 °F 50.9 °F 30.3 in ESE 2.2 mph 9.2 mph 55% 0 in 128 W/m2
18:06 67.8 °F 51.1 °F 30.3 in SE 3.1 mph 6.9 mph 55% 0 in 116 W/m2
18:11 67.6 °F 50.9 °F 30.3 in ESE 3.8 mph 7.6 mph 55% 0 in 103 W/m2
18:16 67.1 °F 50.4 °F 30.3 in ESE 1.6 mph 7.6 mph 55% 0 in 91 W/m2
18:21 66.6 °F 50.4 °F 30.3 in SE 1.6 mph 6.9 mph 56% 0 in 45 W/m2
18:26 64.2 °F 50.2 °F 30.3 in SE 3.1 mph 8.3 mph 60% 0 in 41 W/m2
18:31 63.5 °F 50.7 °F 30.3 in SE 0.7 mph 8.3 mph 63% 0 in 58 W/m2
18:36 63.9 °F 50.5 °F 30.3 in ESE 5.4 mph 6 mph 62% 0 in 38 W/m2
18:41 63 °F 49.8 °F 30.3 in East 3.1 mph 6.9 mph 62% 0 in 36 W/m2
18:46 63 °F 49.8 °F 30.3 in East 3.8 mph 6.9 mph 62% 0 in 27 W/m2
18:51 62.2 °F 49.8 °F 30.3 in ESE 3.8 mph 6 mph 64% 0 in 25 W/m2
18:56 61.7 °F 49.8 °F 30.3 in ESE 0.7 mph 5.4 mph 65% 0 in 22 W/m2
19:01 61.3 °F 49.8 °F 30.3 in ESE 2.2 mph 5.4 mph 66% 0 in 18 W/m2
19:06 61 °F 50 °F 30.3 in Calm   3.8 mph 67% 0 in 14 W/m2
19:11 60.6 °F 50.4 °F 30.3 in ESE 1.6 mph 4.5 mph 69% 0 in 12 W/m2
19:16 60.4 °F 50.2 °F 30.3 in ESE 2.2 mph 4.5 mph 69% 0 in 8 W/m2
19:21 60.3 °F 50.2 °F 30.3 in Calm   5.4 mph 69% 0 in 5 W/m2
19:26 60.1 °F 50.4 °F 30.3 in Calm   5.4 mph 70% 0 in 2 W/m2
19:31 59.7 °F 49.8 °F 30.3 in Calm   1.6 mph 70% 0 in 0 W/m2
19:36 59.5 °F 50.5 °F 30.2 in East 0.7 mph 5.4 mph 72% 0 in 0 W/m2
19:41 59.2 °F 50.5 °F 30.2 in ENE 0.7 mph 5.4 mph 73% 0 in 0 W/m2
20:01 57.4 °F 49.5 °F 30.3 in Calm     75% 0 in 0 W/m2
20:06 57.2 °F 49.5 °F 30.3 in Calm     75% 0 in 0 W/m2
20:11 57 °F 49.8 °F 30.3 in Calm     77% 0 in 0 W/m2
20:16 56.8 °F 49.6 °F 30.3 in Calm     77% 0 in 0 W/m2
20:21 56.5 °F 49.6 °F 30.3 in Calm     78% 0 in 0 W/m2
20:26 55.9 °F 49.3 °F 30.3 in Calm     78% 0 in 0 W/m2
20:31 55.4 °F 48.7 °F 30.3 in Calm     78% 0 in 0 W/m2
20:36 55.2 °F 49.5 °F 30.3 in Calm     81% 0 in 0 W/m2
20:41 55 °F 49.6 °F 30.3 in Calm     82% 0 in 0 W/m2
20:46 54.7 °F 49.8 °F 30.3 in Calm     84% 0 in 0 W/m2
20:51 54.5 °F 50.2 °F 30.3 in Calm     85% 0 in 0 W/m2
20:56 54.1 °F 49.6 °F 30.3 in Calm     85% 0 in 0 W/m2
21:01 53.8 °F 49.5 °F 30.3 in Calm     85% 0 in 0 W/m2
21:06 53.6 °F 49.5 °F 30.3 in Calm     86% 0 in 0 W/m2
21:11 53.6 °F 50.2 °F 30.3 in Calm     88% 0 in 0 W/m2
21:16 53.4 °F 50.4 °F 30.3 in Calm     89% 0 in 0 W/m2
21:21 53.6 °F 50.4 °F 30.3 in Calm     89% 0 in 0 W/m2
21:26 53.4 °F 50.9 °F 30.3 in Calm     91% 0 in 0 W/m2
21:31 53.2 °F 50.7 °F 30.3 in Calm     91% 0 in 0 W/m2
21:36 52.9 °F 50.4 °F 30.3 in Calm     91% 0 in 0 W/m2
21:53 52.2 °F 49.8 °F 30.2 in Calm     92% 0 in 0 W/m2
21:58 52.2 °F 49.8 °F 30.2 in Calm     92% 0 in 0 W/m2
22:03 52 °F 49.6 °F 30.2 in Calm     92% 0 in 0 W/m2
22:08 51.6 °F 49.6 °F 30.2 in Calm     93% 0 in 0 W/m2
22:13 51.8 °F 49.8 °F 30.2 in Calm     93% 0 in 0 W/m2
22:18 51.6 °F 50 °F 30.2 in Calm   0.7 mph 94% 0 in 0 W/m2
22:23 51.8 °F 50.2 °F 30.2 in Calm   0.7 mph 94% 0 in 0 W/m2
22:28 51.8 °F 50.2 °F 30.2 in NNW 3.8 mph 4.5 mph 94% 0 in 0 W/m2
22:33 52 °F 50.5 °F 30.2 in NNW 3.1 mph 4.5 mph 95% 0 in 0 W/m2
22:38 52 °F 50.9 °F 30.2 in NNW 1.6 mph 4.5 mph 96% 0 in 0 W/m2
22:43 52.2 °F 51.1 °F 30.2 in NNW 2.2 mph 4.5 mph 96% 0 in 0 W/m2
22:48 52.2 °F 51.1 °F 30.2 in NNW 3.1 mph 4.5 mph 96% 0 in 0 W/m2
22:53 52.2 °F 51.1 °F 30.2 in NNW 0.7 mph 4.5 mph 96% 0 in 0 W/m2
22:58 52 °F 50.9 °F 30.2 in NNW 2.2 mph 4.5 mph 96% 0 in 0 W/m2
23:03 52 °F 51.3 °F 30.2 in NNW 2.2 mph 5.4 mph 97% 0 in 0 W/m2
23:08 51.8 °F 51.1 °F 30.2 in NNW 2.2 mph 5.4 mph 97% 0 in 0 W/m2
23:13 51.8 °F 51.1 °F 30.2 in NNW 2.2 mph 5.4 mph 97% 0 in 0 W/m2
23:18 51.8 °F 51.1 °F 30.2 in NNW 2.2 mph 4.5 mph 97% 0 in 0 W/m2
23:23 51.8 °F 51.1 °F 30.2 in NNW 2.2 mph 4.5 mph 97% 0 in 0 W/m2
23:28 51.6 °F 51.1 °F 30.2 in Calm   4.5 mph 98% 0 in 0 W/m2
23:33 51.4 °F 50.9 °F 30.2 in Calm   3.8 mph 98% 0 in 0 W/m2
23:38 51.4 °F 50.9 °F 30.2 in Calm     98% 0 in 0 W/m2
23:43 51.4 °F 50.9 °F 30.2 in NW 0.7 mph 4.5 mph 98% 0 in 0 W/m2
23:48 51.4 °F 50.9 °F 30.2 in North 1.6 mph 4.5 mph 98% 0 in 0 W/m2
23:53 51.6 °F 51.1 °F 30.2 in North 3.1 mph 4.5 mph 98% 0 in 0 W/m2
23:58 51.6 °F 51.4 °F 30.2 in North 4.5 mph 5.4 mph 99% 0 in 0 W/m2
Northern Hawkes Bay. New Zealand Historic Data
Compliments of Weather Underground - 2 mb